Time;durP1;ratioP1;P1;durP2;ratioP2;P2;SDS_P1;SDS_P2;PMS_P1;PMS_P2;Temp;Humidity;BMP_temperature;BMP_pressure;BME280_temperature;BME280_humidity;BME280_pressure;Samples;Min_cycle;Max_cycle;Signal;HPM_P1;HPM_P2
2023/10/05 00:05:10;;;;;;;11.32;2.17;;;16.30;99.90;;;;;;5008254;28;20137;-91
2023/10/05 00:07:41;;;;;;;9.95;3.28;;;15.60;99.90;;;;;;4999794;28;20019;-89
2023/10/05 00:10:25;;;;;;;8.80;2.22;;;16.10;99.90;;;;;;4997964;28;20030;-90
2023/10/05 00:12:52;;;;;;;17.65;3.15;;;15.60;99.90;;;;;;4997463;28;20073;-90
2023/10/05 00:15:18;;;;;;;8.95;2.70;;;16.30;99.90;;;;;;4998225;28;20026;-90
2023/10/05 00:17:55;;;;;;;8.05;2.67;;;15.50;99.90;;;;;;4997043;28;20045;-87
2023/10/05 00:20:25;;;;;;;11.07;2.95;;;16.40;99.90;;;;;;4997746;28;20026;-91
2023/10/05 00:22:51;;;;;;;12.90;2.60;;;15.50;99.90;;;;;;4997130;28;20030;-91
2023/10/05 00:25:18;;;;;;;7.75;2.33;;;16.40;99.90;;;;;;4997104;28;20031;-91
2023/10/05 00:27:51;;;;;;;10.18;2.65;;;15.40;99.90;;;;;;4997067;28;20050;-91
2023/10/05 00:30:17;;;;;;;16.17;2.50;;;15.50;99.90;;;;;;4997082;28;20383;-91
2023/10/05 00:32:47;;;;;;;9.48;2.90;;;16.30;99.90;;;;;;4997024;28;20023;-91
2023/10/05 00:35:31;;;;;;;;;;;15.40;99.90;;;;;;4994795;28;20034;-92
2023/10/05 00:38:19;;;;;;;10.50;2.35;;;15.40;99.90;;;;;;4998828;28;20016;-92
2023/10/05 00:41:08;;;;;;;7.40;2.13;;;15.40;99.90;;;;;;4998204;28;20031;-92
2023/10/05 00:43:33;;;;;;;9.25;2.47;;;15.40;99.90;;;;;;5004074;28;20030;-92
2023/10/05 00:46:12;;;;;;;8.43;2.75;;;15.30;99.90;;;;;;4999267;28;20080;-92
2023/10/05 00:48:54;;;;;;;8.82;2.92;;;15.40;99.90;;;;;;4996775;28;20077;-92
2023/10/05 00:51:30;;;;;;;9.82;2.65;;;16.00;99.90;;;;;;4989556;28;20046;-91
2023/10/05 00:54:11;;;;;;;7.35;2.17;;;15.50;99.90;;;;;;4997086;28;20034;-89
2023/10/05 00:56:49;;;;;;;12.30;2.75;;;16.70;99.90;;;;;;5009945;23;20527;-91
2023/10/05 00:59:16;;;;;;;10.30;2.47;;;15.40;99.90;;;;;;5035691;28;20072;-91
2023/10/05 01:04:57;;;;;;;17.92;3.00;;;15.60;99.90;;;;;;5034828;28;20045;-90
2023/10/05 01:13:33;;;;;;;10.13;2.08;;;15.60;99.90;;;;;;4973352;28;20038;-91
2023/10/05 01:16:03;;;;;;;12.68;2.85;;;15.60;99.90;;;;;;4973582;28;20022;-90
2023/10/05 01:18:31;;;;;;;7.07;2.40;;;15.90;99.90;;;;;;5040541;22;20046;-90
2023/10/05 01:21:11;;;;;;;12.52;2.30;;;15.60;99.90;;;;;;5034475;28;20029;-91
2023/10/05 01:23:48;;;;;;;12.77;2.70;;;16.10;99.90;;;;;;5036591;28;20029;-91
2023/10/05 01:26:14;;;;;;;17.85;2.40;;;16.40;99.90;;;;;;5057770;28;20040;-91
2023/10/05 01:28:42;;;;;;;10.75;2.65;;;16.80;99.90;;;;;;5054977;28;20409;-90
2023/10/05 01:31:16;;;;;;;10.10;2.15;;;15.50;99.90;;;;;;5056648;28;20061;-91
2023/10/05 01:33:54;;;;;;;9.38;2.47;;;16.70;99.90;;;;;;5058087;28;20010;-91
2023/10/05 01:36:42;;;;;;;6.28;2.60;;;16.80;99.90;;;;;;5036854;28;20030;-91
2023/10/05 01:39:09;;;;;;;10.63;2.38;;;14.60;99.90;;;;;;5035683;28;20409;-90
2023/10/05 01:41:37;;;;;;;9.63;2.72;;;15.50;99.90;;;;;;5034042;28;20100;-91
2023/10/05 01:44:10;;;;;;;9.38;2.85;;;15.50;99.90;;;;;;5015112;28;20087;-92
2023/10/05 01:46:45;;;;;;;10.32;2.55;;;15.50;99.90;;;;;;5033574;28;20041;-90
2023/10/05 01:49:10;;;;;;;8.75;3.08;;;15.50;99.90;;;;;;5033725;28;20021;-91
2023/10/05 01:51:52;;;;;;;8.52;2.40;;;16.10;99.90;;;;;;5033098;28;20508;-89
2023/10/05 01:54:36;;;;;;;9.32;2.85;;;15.50;99.90;;;;;;5023985;28;20060;-89
2023/10/05 01:57:07;;;;;;;9.20;2.35;;;16.50;99.90;;;;;;5026496;28;20046;-91
2023/10/05 01:59:48;;;;;;;;;;;15.70;99.90;;;;;;5089588;23;20056;-90
2023/10/05 02:02:30;;;;;;;8.43;2.38;;;15.50;99.90;;;;;;5052940;28;19905;-89
2023/10/05 02:04:57;;;;;;;9.25;2.67;;;16.30;99.90;;;;;;5054600;28;20029;-91
2023/10/05 02:07:31;;;;;;;13.32;2.80;;;16.30;99.90;;;;;;5053252;28;20412;-90
2023/10/05 02:09:57;;;;;;;7.13;2.20;;;15.40;99.90;;;;;;5056130;28;20090;-89
2023/10/05 02:12:43;;;;;;;9.30;2.70;;;16.20;99.90;;;;;;5057000;28;20025;-90
2023/10/05 02:15:16;;;;;;;12.82;3.13;;;15.40;99.90;;;;;;5036759;28;20021;-90
2023/10/05 02:18:05;;;;;;;8.70;2.22;;;15.40;99.90;;;;;;5037166;28;20065;-90
2023/10/05 02:22:57;;;;;;;16.58;3.03;;;16.50;99.90;;;;;;5037512;28;20044;-91
2023/10/05 02:25:26;;;;;;;9.23;2.50;;;16.10;99.90;;;;;;5037495;28;20025;-90
2023/10/05 02:28:05;;;;;;;5.70;2.55;;;16.50;99.90;;;;;;4985817;28;20038;-90
2023/10/05 02:30:44;;;;;;;15.85;2.85;;;15.40;99.90;;;;;;5037572;28;20439;-92
2023/10/05 02:33:09;;;;;;;12.25;2.60;;;16.60;99.90;;;;;;5040248;28;20436;-86
2023/10/05 02:36:08;;;;;;;12.50;2.60;;;16.20;99.90;;;;;;5057017;28;20017;-92
2023/10/05 02:38:38;;;;;;;9.63;2.80;;;16.30;99.90;;;;;;5056037;28;20053;-92
2023/10/05 02:46:34;;;;;;;9.07;2.70;;;15.30;99.90;;;;;;5080330;28;20042;-93
2023/10/05 02:49:19;;;;;;;11.10;2.47;;;16.50;99.90;;;;;;5080423;28;20037;-93
2023/10/05 02:51:59;;;;;;;10.70;2.70;;;16.10;99.90;;;;;;5076641;28;20013;-92
2023/10/05 02:54:27;;;;;;;8.93;2.42;;;16.30;99.90;;;;;;5075184;28;20010;-93
2023/10/05 03:00:19;;;;;;;6.00;2.40;;;15.30;99.90;;;;;;5044530;28;20053;-92
2023/10/05 03:03:01;;;;;;;10.02;2.85;;;15.40;99.90;;;;;;5042810;28;20029;-92
2023/10/05 03:05:42;;;;;;;12.35;2.72;;;15.30;99.90;;;;;;5039994;28;20037;-92
2023/10/05 03:08:16;;;;;;;12.50;3.08;;;16.70;99.90;;;;;;5041509;28;20021;-92
2023/10/05 03:10:59;;;;;;;5.70;2.45;;;16.40;99.90;;;;;;5039051;28;20053;-92
2023/10/05 03:13:39;;;;;;;11.32;2.55;;;16.20;99.90;;;;;;5037411;28;20096;-92
2023/10/05 03:16:43;;;;;;;8.35;2.65;;;15.40;99.90;;;;;;5042467;28;20028;-92
2023/10/05 03:19:21;;;;;;;10.07;2.28;;;15.30;99.90;;;;;;5033705;28;20466;-92
2023/10/05 03:21:52;;;;;;;10.40;2.40;;;15.00;99.90;;;;;;5036586;28;20045;-91
2023/10/05 03:24:19;;;;;;;15.48;3.47;;;15.30;99.90;;;;;;5037486;28;20037;-91
2023/10/05 03:27:03;;;;;;;5.70;2.65;;;15.40;99.90;;;;;;5081632;22;20139;-91
2023/10/05 03:29:46;;;;;;;10.52;3.78;;;15.40;99.90;;;;;;5055688;28;20033;-90
2023/10/05 03:35:03;;;;;;;6.07;3.13;;;15.40;99.90;;;;;;5056081;28;20079;-91
2023/10/05 03:37:45;;;;;;;15.05;3.40;;;15.40;99.90;;;;;;5044386;28;20041;-90
2023/10/05 03:42:58;;;;;;;10.02;2.38;;;15.30;99.90;;;;;;5056299;28;20040;-91
2023/10/05 03:45:42;;;;;;;9.00;2.70;;;15.30;99.90;;;;;;5056387;28;20029;-91
2023/10/05 03:48:26;;;;;;;12.23;2.95;;;16.50;99.90;;;;;;5058030;28;20104;-90
2023/10/05 03:51:15;;;;;;;12.75;2.70;;;16.50;99.90;;;;;;5070598;28;20041;-90
2023/10/05 03:53:48;;;;;;;11.77;2.63;;;16.40;99.90;;;;;;5055967;28;20078;-89
2023/10/05 03:56:25;;;;;;;9.07;2.58;;;15.70;99.90;;;;;;5055668;28;20033;-91
2023/10/05 03:59:00;;;;;;;9.82;3.08;;;15.40;99.90;;;;;;5054397;28;20029;-92
2023/10/05 04:01:26;;;;;;;12.73;3.75;;;16.40;99.90;;;;;;5055569;28;20081;-91
2023/10/05 04:04:04;;;;;;;8.77;2.88;;;16.30;99.90;;;;;;5055452;28;20127;-91
2023/10/05 04:06:44;;;;;;;8.73;2.75;;;16.00;99.90;;;;;;5055863;28;20017;-90
2023/10/05 04:09:15;;;;;;;9.98;2.83;;;15.20;99.90;;;;;;5055753;28;20036;-90
2023/10/05 04:11:45;;;;;;;10.93;3.30;;;15.30;99.90;;;;;;5055165;28;20477;-90
2023/10/05 04:14:26;;;;;;;7.20;2.90;;;15.80;99.90;;;;;;5055520;28;20063;-90
2023/10/05 04:17:11;;;;;;;14.13;2.90;;;16.20;99.90;;;;;;5055331;28;20626;-90
2023/10/05 04:19:38;;;;;;;10.52;2.58;;;15.30;99.90;;;;;;5055584;28;20032;-91
2023/10/05 04:22:20;;;;;;;9.25;2.78;;;16.10;99.90;;;;;;5051421;28;20026;-91
2023/10/05 04:24:55;;;;;;;11.93;2.42;;;16.30;99.90;;;;;;5034889;28;20079;-91
2023/10/05 04:27:21;;;;;;;6.38;2.97;;;15.50;99.90;;;;;;5036096;28;20096;-91
2023/10/05 04:29:55;;;;;;;8.35;3.33;;;16.40;99.90;;;;;;5035564;28;20436;-86
2023/10/05 04:32:21;;;;;;;12.57;3.05;;;16.40;99.90;;;;;;5051454;28;20013;-91
2023/10/05 04:35:16;;;;;;;10.75;2.65;;;16.00;99.90;;;;;;5058896;28;20097;-90
2023/10/05 04:37:50;;;;;;;13.38;3.13;;;15.10;99.90;;;;;;5056915;28;20052;-90
2023/10/05 04:40:18;;;;;;;7.47;2.90;;;15.00;99.90;;;;;;5059146;28;20013;-90
2023/10/05 04:43:25;;;;;;;7.20;3.03;;;15.80;99.90;;;;;;5056037;28;20021;-91
2023/10/05 04:45:51;;;;;;;7.43;2.50;;;15.00;99.90;;;;;;5060651;28;20083;-91
2023/10/05 04:48:38;;;;;;;10.27;3.40;;;15.00;99.90;;;;;;5060153;28;20468;-92
2023/10/05 04:54:18;;;;;;;10.63;3.28;;;15.70;99.90;;;;;;5054857;28;20392;-91
2023/10/05 04:56:47;;;;;;;10.57;2.83;;;16.10;99.90;;;;;;5054656;28;20044;-91
2023/10/05 04:59:37;;;;;;;10.00;2.95;;;15.60;99.90;;;;;;5055010;28;20025;-91
2023/10/05 05:02:21;;;;;;;14.38;3.72;;;15.70;99.90;;;;;;5055434;28;20040;-90
2023/10/05 05:07:24;;;;;;;9.38;3.35;;;15.00;99.90;;;;;;5056346;28;20064;-88
2023/10/05 05:09:50;;;;;;;8.88;2.88;;;14.80;99.90;;;;;;5054570;28;20033;-90
2023/10/05 05:12:28;;;;;;;12.65;3.17;;;14.90;99.90;;;;;;5053904;28;20505;-90
2023/10/05 05:14:54;;;;;;;9.48;2.75;;;14.70;99.90;;;;;;5054298;28;20029;-91
2023/10/05 05:17:40;;;;;;;8.05;3.40;;;14.50;99.90;;;;;;5054200;28;20052;-90
2023/10/05 05:20:15;;;;;;;9.82;3.00;;;15.00;99.90;;;;;;5054343;28;20029;-92
2023/10/05 05:22:48;;;;;;;12.48;3.10;;;15.90;99.90;;;;;;5053869;28;20025;-90
2023/10/05 05:25:15;;;;;;;13.52;2.97;;;15.70;99.90;;;;;;5053186;28;20385;-91
2023/10/05 05:28:23;;;;;;;9.15;3.22;;;14.40;99.90;;;;;;5052599;28;20508;-89
2023/10/05 05:30:52;;;;;;;13.10;2.85;;;14.60;99.90;;;;;;5033350;28;20032;-89
2023/10/05 05:33:22;;;;;;;9.85;2.85;;;14.50;99.90;;;;;;5049050;28;20045;-90
2023/10/05 05:36:06;;;;;;;11.55;3.42;;;14.70;99.90;;;;;;5057547;28;20021;-89
2023/10/05 05:38:50;;;;;;;11.15;2.75;;;14.60;99.90;;;;;;5049252;28;20037;-91
2023/10/05 05:41:16;;;;;;;4.10;2.28;;;15.30;99.90;;;;;;5034504;28;20220;-91
2023/10/05 05:43:53;;;;;;;13.25;3.10;;;15.60;99.90;;;;;;5038726;28;20044;-89
2023/10/05 05:46:19;;;;;;;11.98;2.75;;;15.90;99.90;;;;;;5040611;28;20025;-89
2023/10/05 05:48:48;;;;;;;13.60;2.88;;;15.90;99.90;;;;;;5034027;28;20021;-89
2023/10/05 05:51:24;;;;;;;14.50;3.25;;;14.00;99.90;;;;;;5029783;28;20442;-89
2023/10/05 05:53:52;;;;;;;9.25;2.40;;;14.60;99.90;;;;;;5038184;28;20029;-91
2023/10/05 05:56:25;;;;;;;10.38;2.78;;;16.00;99.90;;;;;;5036118;28;20116;-89
2023/10/05 05:59:00;;;;;;;7.82;2.70;;;14.90;99.90;;;;;;5054511;28;20052;-90
2023/10/05 06:01:26;;;;;;;10.30;3.20;;;14.60;99.90;;;;;;5042756;28;20033;-93
2023/10/05 06:04:10;;;;;;;10.48;3.30;;;14.60;99.90;;;;;;5052809;28;20084;-88
2023/10/05 06:06:37;;;;;;;15.95;3.67;;;15.90;99.90;;;;;;5042886;28;20307;-88
2023/10/05 06:09:07;;;;;;;13.10;3.03;;;15.20;99.90;;;;;;5033867;28;20466;-91
2023/10/05 06:11:34;;;;;;;10.23;2.58;;;15.80;99.90;;;;;;5027465;28;20068;-91
2023/10/05 06:14:00;;;;;;;6.85;3.15;;;14.70;99.90;;;;;;5033738;28;20029;-91
2023/10/05 06:16:33;;;;;;;7.93;2.55;;;15.00;99.90;;;;;;5033439;28;20393;-91
2023/10/05 06:19:00;;;;;;;9.93;3.60;;;15.80;99.90;;;;;;5034293;28;20038;-90
2023/10/05 06:21:40;;;;;;;8.52;2.83;;;15.60;99.90;;;;;;5053292;28;20104;-90
2023/10/05 06:24:24;;;;;;;11.57;3.05;;;14.10;99.90;;;;;;5054788;28;20104;-91
2023/10/05 06:27:11;;;;;;;8.18;3.15;;;14.60;99.90;;;;;;5052989;28;20040;-91
2023/10/05 06:29:36;;;;;;;8.93;3.35;;;15.30;99.90;;;;;;5054681;28;20039;-91
2023/10/05 06:32:13;;;;;;;14.50;3.30;;;14.60;99.90;;;;;;5053846;28;20024;-93
2023/10/05 06:34:57;;;;;;;10.63;2.78;;;15.50;99.90;;;;;;5053422;28;20051;-92
2023/10/05 06:37:25;;;;;;;15.70;3.10;;;14.60;99.90;;;;;;5053308;28;20511;-91
2023/10/05 06:39:54;;;;;;;7.60;2.92;;;15.40;99.90;;;;;;5052860;28;20032;-91
2023/10/05 06:42:20;;;;;;;8.20;3.28;;;15.90;99.90;;;;;;5053945;28;20549;-92
2023/10/05 06:44:46;;;;;;;9.50;3.03;;;16.00;99.90;;;;;;5055079;28;20372;-92
2023/10/05 06:47:38;;;;;;;11.48;3.05;;;15.10;99.90;;;;;;5054001;28;20037;-93
2023/10/05 06:50:09;;;;;;;15.23;3.58;;;15.70;99.90;;;;;;5053742;28;20054;-91
2023/10/05 06:52:46;;;;;;;7.50;3.08;;;14.70;99.90;;;;;;5054685;28;20044;-91
2023/10/05 06:55:28;;;;;;;17.80;3.95;;;14.90;99.90;;;;;;5053662;28;20036;-91
2023/10/05 06:58:13;;;;;;;9.57;3.17;;;15.40;99.90;;;;;;5056969;28;20036;-91
2023/10/05 07:00:38;;;;;;;10.27;3.10;;;14.70;99.90;;;;;;5057345;28;20029;-91
2023/10/05 07:03:10;;;;;;;13.57;3.78;;;15.80;99.90;;;;;;5053315;28;20373;-89
2023/10/05 07:05:51;;;;;;;7.68;2.60;;;15.20;99.90;;;;;;5030029;28;20029;-90
2023/10/05 07:08:17;;;;;;;;;;;15.50;99.90;;;;;;5036838;28;20066;-89
2023/10/05 07:10:42;;;;;;;11.85;3.33;;;14.80;99.90;;;;;;5036047;28;19905;-91
2023/10/05 07:16:36;;;;;;;14.20;3.47;;;14.90;99.90;;;;;;5062789;22;20053;-87
2023/10/05 07:19:02;;;;;;;11.75;3.00;;;16.10;99.90;;;;;;5055336;28;20035;-89
2023/10/05 07:21:34;;;;;;;8.85;2.90;;;14.90;99.90;;;;;;5056136;28;20029;-87
2023/10/05 07:23:59;;;;;;;10.80;3.55;;;15.30;99.90;;;;;;5054678;28;20108;-87
2023/10/05 07:26:28;;;;;;;13.93;3.13;;;14.90;99.90;;;;;;5055302;28;20049;-86
2023/10/05 07:28:53;;;;;;;9.18;2.95;;;14.90;99.90;;;;;;5054824;28;20469;-86
2023/10/05 07:34:15;;;;;;;11.40;2.45;;;14.40;99.90;;;;;;5091192;22;20079;-89
2023/10/05 07:36:51;;;;;;;11.45;2.90;;;15.00;99.90;;;;;;5074018;28;20060;-86
2023/10/05 07:39:31;;;;;;;7.32;2.97;;;15.80;99.90;;;;;;5060175;22;20421;-88
2023/10/05 07:44:22;;;;;;;9.80;3.30;;;15.00;99.90;;;;;;5066666;22;20049;-85
2023/10/05 07:49:24;;;;;;;9.85;2.72;;;15.10;99.90;;;;;;5103524;22;20052;-86
2023/10/05 07:52:07;;;;;;;6.63;2.75;;;15.70;99.90;;;;;;5045905;28;20052;-88
2023/10/05 07:54:52;;;;;;;9.68;2.70;;;15.30;99.90;;;;;;5053797;28;20377;-90
2023/10/05 07:57:37;;;;;;;7.72;2.70;;;15.20;99.90;;;;;;5042545;28;20030;-88
2023/10/05 08:00:16;;;;;;;11.63;2.78;;;15.30;99.90;;;;;;5035419;28;20044;-87
2023/10/05 08:02:41;;;;;;;8.90;3.50;;;16.60;99.90;;;;;;5035265;28;20029;-89
2023/10/05 08:05:25;;;;;;;11.50;3.33;;;15.70;99.90;;;;;;5035029;28;20358;-89
2023/10/05 08:07:51;;;;;;;11.35;3.72;;;14.00;99.90;;;;;;5034483;28;20112;-90
2023/10/05 08:10:29;;;;;;;7.78;3.35;;;16.10;99.90;;;;;;5035412;28;20112;-89
2023/10/05 08:13:05;;;;;;;10.52;3.25;;;15.40;99.90;;;;;;5033837;28;20040;-87
2023/10/05 08:15:46;;;;;;;9.38;3.28;;;15.40;99.90;;;;;;5034448;28;20033;-87
2023/10/05 08:18:11;;;;;;;11.13;3.78;;;16.40;99.90;;;;;;5045135;28;20068;-86
2023/10/05 08:20:40;;;;;;;9.25;2.58;;;15.50;99.90;;;;;;5042381;28;20060;-86
2023/10/05 08:23:06;;;;;;;7.47;2.83;;;16.50;99.90;;;;;;5035820;28;20117;-88
2023/10/05 08:25:32;;;;;;;8.18;3.38;;;15.60;99.90;;;;;;5049671;28;20052;-87
2023/10/05 08:28:10;;;;;;;15.27;3.45;;;15.60;99.90;;;;;;5053477;28;20020;-86
2023/10/05 08:30:45;;;;;;;11.88;2.67;;;15.60;99.90;;;;;;5043123;28;20024;-86
2023/10/05 08:33:15;;;;;;;10.57;2.97;;;15.70;99.90;;;;;;5034015;28;20021;-86
2023/10/05 08:35:41;;;;;;;10.15;3.20;;;15.70;99.90;;;;;;5032815;28;20029;-88
2023/10/05 08:38:15;;;;;;;9.60;2.80;;;16.20;99.90;;;;;;5044782;28;20045;-88
2023/10/05 08:40:55;;;;;;;9.48;2.50;;;17.00;99.90;;;;;;5041811;28;20026;-88
2023/10/05 08:43:27;;;;;;;15.43;3.22;;;16.00;99.90;;;;;;5054064;28;20095;-91
2023/10/05 08:46:03;;;;;;;10.32;3.15;;;16.10;99.90;;;;;;5054495;28;20060;-88
2023/10/05 08:48:46;;;;;;;11.43;2.72;;;15.80;99.90;;;;;;5054144;28;20045;-89
2023/10/05 08:51:30;;;;;;;19.23;3.13;;;15.80;99.90;;;;;;5055242;28;20036;-89
2023/10/05 08:54:14;;;;;;;12.73;2.90;;;16.20;99.90;;;;;;5048311;28;20141;-93
2023/10/05 08:56:42;;;;;;;12.18;2.95;;;15.90;99.90;;;;;;5034654;28;20029;-91
2023/10/05 08:59:29;;;;;;;7.97;2.72;;;17.10;99.90;;;;;;5039387;28;20017;-89
2023/10/05 09:02:04;;;;;;;9.43;3.30;;;16.00;99.90;;;;;;5054659;28;20031;-86
2023/10/05 09:04:43;;;;;;;11.85;2.90;;;16.00;99.90;;;;;;5059741;28;20036;-85
2023/10/05 09:07:09;;;;;;;13.52;2.88;;;16.00;99.90;;;;;;5067818;28;20041;-85
2023/10/05 09:09:38;;;;;;;7.80;3.00;;;16.10;99.90;;;;;;5071244;28;20032;-88
2023/10/05 09:13:12;;;;;;;9.43;2.60;;;16.10;99.90;;;;;;5033269;28;20030;-88
2023/10/05 09:15:18;;;;;;;6.65;2.25;;;16.10;99.90;;;;;;5026154;28;20021;-87
2023/10/05 09:20:55;;;;;;;7.90;2.63;;;17.10;99.90;;;;;;5042627;28;20096;-91
2023/10/05 09:23:31;;;;;;;8.65;2.60;;;16.20;99.90;;;;;;5053449;28;20025;-86
2023/10/05 09:25:57;;;;;;;12.85;2.70;;;16.10;99.90;;;;;;5042963;28;20063;-89
2023/10/05 09:28:28;;;;;;;15.43;3.38;;;16.00;99.90;;;;;;5043004;28;20060;-89
2023/10/05 09:31:07;;;;;;;7.05;2.30;;;16.20;99.90;;;;;;5052966;28;20074;-89
2023/10/05 09:33:40;;;;;;;14.70;2.75;;;16.60;99.90;;;;;;5039224;28;20029;-88
2023/10/05 09:36:19;;;;;;;11.57;2.80;;;16.20;99.90;;;;;;5033432;28;20044;-85
2023/10/05 09:41:25;;;;;;;8.98;2.40;;;16.20;99.90;;;;;;5275710;22;20083;-90
2023/10/05 09:44:01;;;;;;;12.23;2.65;;;16.20;99.90;;;;;;5053989;28;20078;-87
2023/10/05 09:46:33;;;;;;;12.23;2.88;;;16.20;99.90;;;;;;5051825;28;20082;-88
2023/10/05 09:49:14;;;;;;;7.90;2.72;;;16.20;99.90;;;;;;5042636;28;20032;-90
2023/10/05 09:51:43;;;;;;;12.98;2.72;;;16.20;99.90;;;;;;5046097;22;20390;-87
2023/10/05 09:54:27;;;;;;;15.93;3.22;;;16.20;99.90;;;;;;5022271;28;20030;-90
2023/10/05 09:57:10;;;;;;;7.05;2.00;;;16.20;99.90;;;;;;5022779;28;20085;-88
2023/10/05 10:00:08;;;;;;;12.20;3.33;;;16.20;99.90;;;;;;5016998;28;20014;-89
2023/10/05 10:06:28;;;;;;;11.13;2.95;;;16.20;99.90;;;;;;5014482;28;20037;-90
2023/10/05 10:12:25;;;;;;;;;;;;;;;;;;;;;
2023/10/05 10:23:35;;;;;;;13.70;2.90;;;16.30;99.90;;;;;;5081506;22;20061;-91
2023/10/05 10:26:24;;;;;;;7.88;2.53;;;16.30;99.90;;;;;;5048327;28;20042;-92
2023/10/05 10:28:59;;;;;;;11.43;3.17;;;17.30;99.90;;;;;;5054490;28;20025;-92
2023/10/05 10:34:19;;;;;;;9.32;2.97;;;17.60;99.90;;;;;;5055271;28;20116;-85
2023/10/05 10:36:51;;;;;;;8.75;2.65;;;16.50;99.90;;;;;;5058785;28;20164;-87
2023/10/05 10:39:27;;;;;;;14.25;2.90;;;17.60;99.90;;;;;;5043505;28;20029;-89
2023/10/05 10:42:18;;;;;;;13.60;3.20;;;16.40;99.90;;;;;;5037497;28;20075;-88
2023/10/05 10:47:17;;;;;;;7.15;2.65;;;16.50;99.90;;;;;;5061635;28;20048;-91
2023/10/05 10:50:00;;;;;;;9.93;2.97;;;16.50;99.90;;;;;;5073588;28;20029;-92
2023/10/05 10:52:26;;;;;;;9.45;2.35;;;17.30;99.90;;;;;;5080960;28;20025;-92
2023/10/05 10:54:54;;;;;;;19.13;3.08;;;16.70;99.90;;;;;;5080781;28;20020;-91
2023/10/05 10:57:23;;;;;;;8.13;2.55;;;16.60;99.90;;;;;;5061982;28;20045;-91
2023/10/05 11:02:54;;;;;;;7.70;2.53;;;16.60;99.90;;;;;;5057223;28;20047;-91
2023/10/05 11:06:04;;;;;;;9.98;2.72;;;16.30;99.90;;;;;;5057047;28;20366;-90
2023/10/05 11:08:50;;;;;;;11.15;2.55;;;16.60;99.90;;;;;;5056951;28;20104;-88
2023/10/05 11:11:19;;;;;;;11.20;2.53;;;16.60;99.90;;;;;;5046467;28;20025;-90
2023/10/05 11:16:59;;;;;;;7.40;2.60;;;16.70;99.90;;;;;;5070854;22;20060;-91
2023/10/05 11:19:36;;;;;;;8.70;2.58;;;16.60;99.90;;;;;;5049800;28;20029;-89
2023/10/05 11:32:41;;;;;;;;;;;;;;;;;;;;;
2023/10/05 12:03:44;;;;;;;10.77;2.05;;;17.00;99.90;;;;;;4823745;22;20432;-89
2023/10/05 12:06:23;;;;;;;7.10;2.63;;;17.10;99.90;;;;;;5043489;28;20041;-93
2023/10/05 12:09:00;;;;;;;7.13;2.10;;;17.40;99.90;;;;;;5054764;28;20017;-93
2023/10/05 12:11:41;;;;;;;14.00;2.67;;;17.10;99.90;;;;;;5453370;22;20757;-91
2023/10/05 12:14:33;;;;;;;5.20;2.30;;;17.20;99.90;;;;;;5072821;28;20032;-93
2023/10/05 12:17:00;;;;;;;11.40;2.75;;;17.20;99.90;;;;;;5647665;22;20207;-88
2023/10/05 12:19:36;;;;;;;6.28;2.47;;;17.20;99.90;;;;;;5037781;28;20060;-90
2023/10/05 12:22:13;;;;;;;12.73;3.25;;;17.90;99.90;;;;;;5032235;28;20428;-90
2023/10/05 12:25:24;;;;;;;8.80;2.58;;;17.80;99.90;;;;;;5025333;28;20025;-90
2023/10/05 12:27:49;;;;;;;5.43;2.70;;;16.80;99.90;;;;;;4997977;28;20048;-84
2023/10/05 12:30:16;;;;;;;6.15;2.50;;;17.40;99.90;;;;;;5029656;28;20086;-91
2023/10/05 12:33:28;;;;;;;18.20;2.92;;;17.90;99.90;;;;;;5027984;28;20025;-92
2023/10/05 12:35:54;;;;;;;8.55;2.60;;;17.70;99.90;;;;;;4994632;28;20493;-89
2023/10/05 12:38:21;;;;;;;6.75;2.45;;;18.60;99.90;;;;;;5026832;28;20046;-91
2023/10/05 12:40:48;;;;;;;8.15;2.70;;;17.40;99.90;;;;;;5024848;28;20107;-87
2023/10/05 12:43:15;;;;;;;10.98;2.60;;;17.40;99.90;;;;;;5024253;28;20045;-89
2023/10/05 12:45:58;;;;;;;7.28;2.47;;;17.30;99.90;;;;;;5047287;23;20057;-95
2023/10/05 12:48:33;;;;;;;10.10;2.85;;;18.30;99.90;;;;;;5051375;28;20072;-95
2023/10/05 12:51:00;;;;;;;8.23;2.90;;;17.50;99.90;;;;;;5056913;28;20039;-93
2023/10/05 12:53:38;;;;;;;5.75;2.42;;;17.80;99.90;;;;;;5057373;28;20028;-93
2023/10/05 12:56:22;;;;;;;7.90;2.20;;;18.40;99.90;;;;;;5051066;28;20033;-93
2023/10/05 12:59:03;;;;;;;12.20;2.67;;;17.70;99.90;;;;;;5052656;28;20045;-91
2023/10/05 13:01:44;;;;;;;6.80;2.30;;;18.10;99.90;;;;;;5053548;28;20068;-93
2023/10/05 13:04:11;;;;;;;6.45;1.95;;;17.80;99.90;;;;;;5055972;28;20016;-93
2023/10/05 13:06:38;;;;;;;8.85;1.95;;;17.80;99.90;;;;;;5056136;28;20773;-93
2023/10/05 13:09:04;;;;;;;6.82;2.33;;;18.30;99.90;;;;;;5055754;28;20036;-93
2023/10/05 13:11:32;;;;;;;6.15;2.08;;;17.90;99.90;;;;;;5054503;28;20024;-93
2023/10/05 13:13:58;;;;;;;9.27;2.30;;;17.80;99.90;;;;;;5054744;28;20357;-93
2023/10/05 13:16:32;;;;;;;5.32;2.22;;;17.90;99.90;;;;;;5054787;28;20029;-93
2023/10/05 13:18:58;;;;;;;5.85;2.03;;;17.90;99.90;;;;;;5055900;28;20039;-93
2023/10/05 13:21:39;;;;;;;5.50;2.00;;;18.00;99.90;;;;;;5057881;28;20029;-90
2023/10/05 13:24:56;;;;;;;6.97;2.80;;;17.90;99.90;;;;;;5057594;28;20457;-92
2023/10/05 13:28:13;;;;;;;4.00;1.80;;;18.00;99.90;;;;;;5056440;28;20492;-95
2023/10/05 13:31:06;;;;;;;5.78;2.38;;;18.10;99.90;;;;;;5053240;28;20071;-92
2023/10/05 13:33:59;;;;;;;6.15;2.60;;;18.10;99.90;;;;;;5061237;28;20025;-93
2023/10/05 13:36:41;;;;;;;8.02;2.78;;;18.10;99.90;;;;;;5059882;28;20112;-93
2023/10/05 13:42:14;;;;;;;8.32;1.90;;;18.20;99.90;;;;;;5060236;28;20044;-92
2023/10/05 13:58:31;;;;;;;8.68;2.85;;;18.20;99.90;;;;;;5246130;22;20059;-90
2023/10/05 14:04:52;;;;;;;4.38;2.17;;;17.80;99.90;;;;;;5007404;28;20057;-91
2023/10/05 14:08:10;;;;;;;15.00;2.55;;;18.30;99.90;;;;;;5030840;28;20025;-93
2023/10/05 14:10:56;;;;;;;4.30;2.20;;;18.30;99.90;;;;;;5053330;28;20139;-90
2023/10/05 14:13:22;;;;;;;12.77;2.08;;;18.40;99.90;;;;;;5058719;28;20032;-92
2023/10/05 14:16:01;;;;;;;7.82;2.42;;;18.40;99.90;;;;;;5068063;28;20044;-90
2023/10/05 14:18:30;;;;;;;4.30;2.28;;;18.50;99.90;;;;;;5067258;28;20025;-92
2023/10/05 14:20:56;;;;;;;6.93;1.95;;;19.60;99.90;;;;;;5060428;28;20021;-92
2023/10/05 14:23:24;;;;;;;3.35;1.70;;;18.90;99.90;;;;;;5057380;28;20056;-91
2023/10/05 14:26:00;;;;;;;5.57;2.53;;;19.70;99.90;;;;;;5055149;28;20031;-92
2023/10/05 14:28:37;;;;;;;4.05;1.63;;;18.40;99.90;;;;;;5039300;28;20419;-91
2023/10/05 14:31:25;;;;;;;6.32;2.33;;;18.30;99.90;;;;;;5050505;28;20161;-92
2023/10/05 14:34:00;;;;;;;5.18;2.05;;;18.80;99.90;;;;;;5055251;28;20098;-92
2023/10/05 14:36:30;;;;;;;8.02;2.58;;;18.40;99.90;;;;;;5121188;22;20049;-90
2023/10/05 14:39:32;;;;;;;5.25;2.47;;;19.70;99.90;;;;;;5053523;28;20060;-93
2023/10/05 14:42:00;;;;;;;5.22;1.85;;;19.10;99.90;;;;;;5043364;28;20033;-91
2023/10/05 14:44:51;;;;;;;7.38;1.88;;;18.60;99.90;;;;;;5065860;28;20044;-94
2023/10/05 14:47:34;;;;;;;3.88;2.00;;;18.70;99.90;;;;;;5068436;28;20072;-95
2023/10/05 14:50:13;;;;;;;9.82;2.55;;;18.70;99.90;;;;;;5054610;28;20041;-92
2023/10/05 14:52:51;;;;;;;7.07;2.05;;;18.70;99.90;;;;;;5069230;28;20045;-92
2023/10/05 14:55:20;;;;;;;7.57;1.85;;;18.80;99.90;;;;;;5068361;28;20044;-95
2023/10/05 14:57:46;;;;;;;4.18;1.33;;;18.40;99.90;;;;;;5066770;28;20037;-92
2023/10/05 15:00:26;;;;;;;4.43;1.27;;;17.90;99.90;;;;;;5050768;28;20058;-93
2023/10/05 15:02:53;;;;;;;5.25;1.52;;;18.80;99.90;;;;;;5063445;28;20091;-94
2023/10/05 15:05:37;;;;;;;7.82;2.15;;;18.60;99.90;;;;;;5025954;28;20032;-94
2023/10/05 15:08:03;;;;;;;7.43;2.67;;;19.30;99.90;;;;;;5061377;28;20009;-94
2023/10/05 15:16:05;;;;;;;7.85;2.28;;;19.10;99.90;;;;;;5508392;22;20986;-94
2023/10/05 15:18:36;;;;;;;3.05;1.58;;;19.10;99.90;;;;;;5044893;28;20409;-93
2023/10/05 15:21:23;;;;;;;5.32;1.80;;;19.10;99.90;;;;;;5035105;28;20506;-90
2023/10/05 15:23:48;;;;;;;6.68;1.60;;;18.30;99.90;;;;;;5025648;28;20061;-92
2023/10/05 15:31:24;;;;;;;6.18;1.90;;;18.90;99.90;;;;;;5083198;22;20080;-92
2023/10/05 15:33:52;;;;;;;10.43;2.33;;;18.70;99.90;;;;;;5138397;22;20083;-88
2023/10/05 15:36:32;;;;;;;8.48;2.75;;;18.70;99.90;;;;;;5056629;28;20025;-91
2023/10/05 15:38:59;;;;;;;5.95;2.42;;;18.70;99.90;;;;;;5063876;22;20496;-89
2023/10/05 15:58:38;;;;;;;7.18;2.40;;;18.30;99.90;;;;;;5077812;28;20309;-94
2023/10/05 16:01:04;;;;;;;4.38;1.98;;;18.30;99.90;;;;;;5081182;28;20036;-92
2023/10/05 16:03:51;;;;;;;3.70;2.10;;;18.30;99.90;;;;;;5079362;28;20420;-93
2023/10/05 16:06:28;;;;;;;6.05;2.30;;;17.80;99.90;;;;;;5083723;28;20021;-93
2023/10/05 16:09:15;;;;;;;5.13;1.95;;;18.20;99.90;;;;;;5078495;28;20104;-94
2023/10/05 16:11:59;;;;;;;7.00;1.88;;;18.20;99.90;;;;;;5064489;28;20025;-93
2023/10/05 16:14:48;;;;;;;4.65;2.03;;;18.90;99.90;;;;;;5062555;28;20021;-93
2023/10/05 16:20:37;;;;;;;7.18;1.90;;;18.20;99.90;;;;;;5104150;22;20057;-94